Lamar, CO (81052)

12:47 PM MDT on August 04, 2015 (GMT -0600)
Lamar Municipal | | Change Station
CLOSE
Current Station
Airport
Location: Lamar,
Elevation: 3704 ft
Nearby Weather Stations

Elev 3704 ft 38.07 °N, 102.69 °W | Updated 54 minutes ago

Clear
Clear
86 °F
Feels Like 85 °F
N
10
Wind Variable Wind from WSW

Today
High -- | Low -- °F
--% Chance of Precip.
Yesterday
High -- | Low -- °F
Precip. -- in
5:55 AM 7:56 PM
Waning Gibbous, 75% visible
Pressure 29.79 in
Visibility 8.0 miles
Clouds Clear
Heat Index 85 °F
Dew Point 57 °F
Humidity 37%
Rainfall 0.02 in
Snow Depth Not available.
UV 11 out of 12
Pollen 7.20 out of 12
Air Quality Not available.
Flu Activity Not available.
METAR KLAA 041753Z AUTO 24009KT 8SM CLR 30/14 A2995 RMK AO2 SLP088 T03000139 10300 20144 58015 TSNO

More Conditions Fewer Conditions

Pressure 29.79 in
Visibility 8.0 miles
Clouds Clear
Heat Index 85 °F
Dew Point 57 °F
Humidity 37%
Rainfall 0.02 in
Snow Depth Not available.
UV 11 out of 12
Pollen 7.20 out of 12
Air Quality Not available.
Flu Activity Not available.
METAR KLAA 041753Z AUTO 24009KT 8SM CLR 30/14 A2995 RMK AO2 SLP088 T03000139 10300 20144 58015 TSNO

More Conditions Fewer Conditions

10-Day Weather Forecast

×

Almanac

Astronomy

Aug. 04, 2015 Rise Set
Actual Time
Civil Twilight
Nautical Twilight
Astronomical Twilight
Moon
Length of Visible Light
Length of Day
Tomorrow will be .
, % of the Moon is Illuminated

Today's Extremes

State Highs State Lows

Community

WunderPhotos

Upload Photos

1,843,937 photos uploaded!

WunderBlogs® & News

Nearby

Air Quality

  Air Quality AQ Index Pollutant
Not available.

Snow Depth

Station Depth Elevation

Earthquake Activity

City Distance Mag. Time & Date
Minimum magnitude displayed is 2.5.

Coastal Water Temperatures

Place Temperature

Stations

Nearby Weather Stations

Station Location Temp. Windchill Dew Point Humidity Wind Precip. Elev Updated Type